Data for 03/05/2017

Time Sea-Level Adjusted Pressure Absolute Pressure Temperature Relative Humidity Dew Point   
(mb) (inHg) (mb) (inHg) (C) (F) (%) (C) (F)
00:05 1004 29.65 833 24.6 6.8 44.2 24 -12.6 9.2
00:10 1004 29.65 833 24.6 6.8 44.2 23 -13 8.6
00:15 1004 29.65 833 24.6 7.1 44.8 23 -12.7 9.1
00:20 1004 29.65 833 24.6 7 44.7 23 -12.7 9.1
00:25 1004 29.65 833 24.6 6.9 44.4 23 -12.8 8.9
00:30 1004 29.65 833 24.6 6.9 44.5 23 -12.7 9.1
00:35 1004 29.65 833 24.6 7 44.6 24 -12.2 10
00:40 1004 29.65 833 24.6 6.8 44.2 24 -12.6 9.3
00:45 1004 29.65 833 24.6 6.8 44.2 24 -12.6 9.3
00:50 1004 29.65 833 24.6 6.8 44.3 24 -12.6 9.4
00:55 1004 29.65 833 24.6 7 44.5 24 -12.5 9.5
01:00 1004 29.65 833 24.6 6.9 44.5 24 -12.4 9.7
01:05 1004 29.65 833 24.6 7.1 44.7 23 -12.7 9.2
01:10 1004 29.65 833 24.6 7.1 44.7 23 -12.5 9.4
01:15 1004 29.65 833 24.6 6.9 44.3 24 -12.3 9.9
01:20 1004 29.65 833 24.6 6.7 44 24 -12.5 9.4
01:25 1004 29.65 833 24.6 6.8 44.2 24 -12.7 9.2
01:30 1004 29.65 833 24.6 7.1 44.7 23 -12.5 9.5
01:35 1004 29.65 833 24.6 7.1 44.9 24 -12.4 9.8
01:40 1003 29.62 833 24.6 7.1 44.7 24 -12.3 9.8
01:45 1003 29.62 833 24.6 6.9 44.5 24 -12.2 10
01:50 1003 29.62 833 24.6 6.9 44.4 25 -12.1 10.2
01:55 1003 29.62 833 24.6 6.8 44.2 25 -12 10.5
02:00 1003 29.62 833 24.6 6.8 44.3 25 -12 10.3
02:05 1003 29.62 832 24.57 6.8 44.3 26 -11.4 11.6
02:10 1003 29.62 832 24.57 6 42.8 28 -11.4 11.5
02:15 1003 29.62 832 24.57 5.4 41.7 28 -11.6 11.1
02:20 1003 29.62 832 24.57 5.1 41.1 29 -11.5 11.3
02:25 1003 29.62 832 24.57 4.6 40.2 30 -11.8 10.8
02:30 1003 29.62 832 24.57 4.6 40.4 30 -11.7 10.9
02:35 1003 29.62 832 24.57 4.8 40.6 29 -11.7 11
02:40 1003 29.62 832 24.57 4.7 40.4 30 -11.6 11.1
02:45 1003 29.62 832 24.57 4.7 40.5 29 -11.8 10.8
02:50 1003 29.62 832 24.57 4.8 40.7 29 -11.7 11
02:55 1003 29.62 832 24.57 4.9 40.9 29 -11.6 11.2
03:00 1003 29.62 832 24.57 5 41 29 -11.6 11.2
03:05 1003 29.62 832 24.57 5.4 41.8 28 -11.5 11.3
03:10 1003 29.62 832 24.57 5.6 42 28 -11.5 11.2
03:15 1003 29.62 832 24.57 5.7 42.2 28 -11.4 11.4
03:20 1002 29.59 832 24.57 5.8 42.5 28 -11.2 11.9
03:25 1002 29.59 832 24.57 5.9 42.7 27 -11.6 11.1
03:30 1002 29.59 832 24.57 6.3 43.4 27 -11.5 11.3
03:35 1002 29.59 832 24.57 6.3 43.4 26 -11.6 11.1
03:40 1002 29.59 832 24.57 6.3 43.4 27 -11.3 11.7
03:45 1002 29.59 832 24.57 6.2 43.1 28 -11.2 11.8
03:50 1002 29.59 832 24.57 6 42.8 28 -11.2 11.9
03:55 1002 29.59 831 24.54 6.7 44 25 -11.8 10.8
04:00 1002 29.59 831 24.54 6.9 44.4 26 -11.2 11.9
04:05 1002 29.59 831 24.54 6.8 44.3 26 -11.6 11
04:10 1002 29.59 831 24.54 7 44.6 27 -10.7 12.7
04:15 1002 29.59 831 24.54 6.7 44.1 26 -11.3 11.6
04:20 1002 29.59 831 24.54 7.1 44.7 26 -11.2 11.9
04:25 1002 29.59 831 24.54 7.2 45 25 -11.3 11.6
04:30 1002 29.59 831 24.54 7.2 44.9 25 -11.8 10.8
04:35 1002 29.59 831 24.54 7.2 45 26 -11.2 11.9
04:40 1002 29.59 831 24.54 7.1 44.8 26 -11.3 11.6
04:45 1002 29.59 831 24.54 7.1 44.8 26 -11.4 11.5
04:50 1002 29.59 831 24.54 7.1 44.7 26 -11.2 11.8
04:55 1002 29.59 831 24.54 7 44.6 24 -12 10.3
05:00 1002 29.59 831 24.54 7 44.7 26 -11.2 11.8
05:05 1002 29.59 831 24.54 6.9 44.4 24 -12.1 10.2
05:10 1002 29.59 831 24.54 7 44.7 24 -12.2 10.1
05:15 1002 29.59 831 24.54 7.2 44.9 25 -11.5 11.3
05:20 1002 29.59 831 24.54 6.8 44.2 25 -11.7 11
05:25 1002 29.59 831 24.54 6.6 43.9 26 -11.4 11.4
05:30 1002 29.59 831 24.54 6.4 43.6 27 -11.5 11.3
05:35 1002 29.59 831 24.54 6.6 43.8 25 -12.3 9.8
05:40 1002 29.59 831 24.54 7 44.5 23 -12.6 9.4
05:45 1002 29.59 831 24.54 6.9 44.5 25 -11.8 10.7
05:50 1002 29.59 831 24.54 6.7 44.1 25 -12.2 10
05:55 1002 29.59 831 24.54 6.7 44.1 25 -12.1 10.2
06:00 1002 29.59 831 24.54 6.7 44 24 -12.3 9.9
06:05 1002 29.59 831 24.54 6.7 44 25 -11.8 10.7
06:10 1002 29.59 831 24.54 6.6 43.8 26 -11.8 10.7
06:15 1001 29.56 831 24.54 6.5 43.8 26 -11.4 11.4
06:20 1001 29.56 831 24.54 6.5 43.6 26 -11.8 10.8
06:25 1001 29.56 831 24.54 6.7 44.1 25 -12 10.3
06:30 1001 29.56 831 24.54 6.7 44.1 26 -11.3 11.7
06:35 1001 29.56 831 24.54 6.4 43.6 26 -11.8 10.8
06:40 1001 29.56 831 24.54 6.3 43.4 27 -11.3 11.6
06:45 1001 29.56 831 24.54 6.4 43.5 27 -11.2 11.8
06:50 1001 29.56 830 24.51 6.5 43.8 26 -11.5 11.2
06:55 1001 29.56 830 24.51 6.5 43.6 26 -11.7 11
07:00 1001 29.56 830 24.51 6.4 43.4 26 -11.9 10.6
07:05 1001 29.56 830 24.51 6.4 43.5 26 -11.7 10.9
07:10 1001 29.56 830 24.51 6.3 43.3 26 -11.7 11
07:15 1001 29.56 830 24.51 6.4 43.5 24 -12.8 9
07:20 1001 29.56 830 24.51 6.7 44 25 -12 10.5
07:25 1001 29.56 830 24.51 6.7 44 26 -11.6 11
07:30 1001 29.56 830 24.51 6.7 44 25 -12.2 10
07:35 1001 29.56 830 24.51 6.8 44.2 26 -11.7 11
07:40 1001 29.56 830 24.51 6.8 44.3 26 -11.3 11.6
07:45 1001 29.56 830 24.51 6.8 44.3 26 -11.4 11.5
07:50 1001 29.56 830 24.51 6.9 44.5 26 -11.5 11.3
07:55 1001 29.56 830 24.51 6.9 44.3 28 -10.6 12.9
08:00 1001 29.56 830 24.51 6.8 44.3 27 -11 12.2
08:05 1001 29.56 830 24.51 7 44.6 27 -10.8 12.6
08:10 1001 29.56 830 24.51 7 44.6 26 -11.3 11.7
08:15 1001 29.56 830 24.51 7.1 44.8 26 -11.4 11.5
08:20 1001 29.56 830 24.51 7.1 44.8 26 -11.3 11.7
08:25 1001 29.56 830 24.51 7.3 45.1 25 -11.4 11.4
08:30 1001 29.56 830 24.51 7.4 45.3 26 -11 12.1
08:35 1001 29.56 830 24.51 7.3 45.1 26 -11.1 12.1
08:40 1001 29.56 830 24.51 7.3 45.2 26 -10.7 12.7
08:45 1001 29.56 830 24.51 7.4 45.3 25 -11.3 11.7
08:50 1001 29.56 830 24.51 7.5 45.4 25 -11.2 11.9
08:55 1001 29.56 830 24.51 7.5 45.4 25 -11.3 11.6
09:00 1001 29.56 830 24.51 7.5 45.6 26 -10.9 12.3
09:05 1001 29.56 830 24.51 7.6 45.7 25 -11.2 11.8
09:10 1001 29.56 830 24.51 7.7 45.9 26 -10.8 12.6
09:15 1001 29.56 830 24.51 7.9 46.2 24 -11.2 11.8
09:20 1001 29.56 830 24.51 8 46.5 25 -10.9 12.4
09:25 1001 29.56 830 24.51 8.1 46.6 24 -11.1 12
09:30 1000 29.53 830 24.51 8.3 47 23 -11.9 10.6
09:35 1000 29.53 830 24.51 8.4 47 23 -11.6 11.1
09:40 1000 29.53 830 24.51 8.5 47.3 22 -11.9 10.6
09:45 1000 29.53 830 24.51 8.8 47.9 22 -12 10.4
09:50 1000 29.53 830 24.51 8.6 47.5 22 -12 10.4
09:55 1000 29.53 829 24.48 8.6 47.5 22 -12 10.5
10:00 1000 29.53 829 24.48 8.8 47.9 22 -12.1 10.3
10:05 1000 29.53 829 24.48 8.7 47.6 23 -11.2 11.8
10:10 1000 29.53 829 24.48 8.7 47.6 22 -11.7 10.9
10:15 1000 29.53 829 24.48 8.6 47.4 23 -11.3 11.6
10:20 1000 29.53 829 24.48 8.5 47.4 23 -11.3 11.7
10:25 1000 29.53 829 24.48 8.7 47.7 23 -11.4 11.4
10:30 1000 29.53 829 24.48 8.6 47.4 24 -10.8 12.6
10:35 1000 29.53 829 24.48 8.7 47.7 23 -11.5 11.4
10:40 999 29.5 829 24.48 8.8 47.8 24 -10.6 12.9
10:45 999 29.5 829 24.48 9 48.2 24 -10.5 13
10:50 999 29.5 829 24.48 9 48.2 24 -10.8 12.6
10:55 999 29.5 829 24.48 8.7 47.6 24 -11 12.3
11:00 999 29.5 829 24.48 8.5 47.4 26 -9.8 14.4
11:05 999 29.5 829 24.48 8.7 47.6 25 -10.4 13.3
11:10 999 29.5 828 24.45 8.9 48.1 25 -10.3 13.5
11:15 999 29.5 828 24.45 9.1 48.3 24 -10.6 12.9
11:20 999 29.5 828 24.45 9.1 48.5 23 -10.8 12.5
11:25 999 29.5 828 24.45 9.1 48.3 26 -9.3 15.3
11:30 999 29.5 828 24.45 8.7 47.7 26 -9.6 14.8
11:35 999 29.5 828 24.45 8.2 46.7 27 -9.7 14.6
11:40 999 29.5 828 24.45 8.1 46.7 30 -8.4 16.8
11:45 999 29.5 828 24.45 8.3 46.9 28 -9.1 15.5
11:50 999 29.5 828 24.45 8 46.3 28 -9.7 14.6
11:55 999 29.5 828 24.45 7.9 46.3 30 -8.5 16.6
12:00 999 29.5 828 24.45 7.9 46.2 31 -8.1 17.3
12:05 999 29.5 828 24.45 8 46.3 30 -8.4 16.9
12:10 999 29.5 828 24.45 8 46.4 29 -8.8 16.1
12:15 999 29.5 828 24.45 8 46.3 30 -8.5 16.7
12:20 999 29.5 828 24.45 7.9 46.3 30 -8.7 16.3
12:25 999 29.5 828 24.45 7.9 46.3 29 -9 15.8
12:30 999 29.5 828 24.45 7.9 46.3 31 -8 17.5
12:35 999 29.5 828 24.45 8 46.4 29 -9 15.7
12:40 999 29.5 828 24.45 8 46.3 30 -8.6 16.5
12:45 999 29.5 828 24.45 7.8 46 31 -8.3 17
12:50 999 29.5 828 24.45 7.5 45.5 32 -8.2 17.2
12:55 999 29.5 828 24.45 7.2 45 32 -8.2 17.2
13:00 999 29.5 828 24.45 7.3 45.1 33 -7.9 17.8
13:05 999 29.5 828 24.45 7.2 44.9 33 -8.2 17.2
13:10 998 29.47 828 24.45 7.1 44.8 34 -7.6 18.2
13:15 999 29.5 828 24.45 7.1 44.8 35 -7.4 18.7
13:20 999 29.5 828 24.45 7.2 45 33 -7.9 17.8
13:25 999 29.5 828 24.45 7.2 44.9 36 -7.1 19.3
13:30 998 29.47 828 24.45 7.1 44.8 35 -7.4 18.8
13:35 998 29.47 828 24.45 7 44.5 38 -6.4 20.4
13:40 998 29.47 828 24.45 6.7 44.1 41 -5.7 21.8
13:45 998 29.47 828 24.45 6.5 43.6 40 -6.2 20.9
13:50 998 29.47 828 24.45 6.3 43.4 39 -6.5 20.3
13:55 998 29.47 828 24.45 6.4 43.4 42 -5.7 21.7
14:00 998 29.47 828 24.45 6.3 43.4 41 -5.8 21.5
14:05 998 29.47 828 24.45 6.2 43.2 41 -6 21.2
14:10 998 29.47 828 24.45 6.2 43.1 41 -6 21.2
14:15 998 29.47 828 24.45 6.3 43.3 40 -6.4 20.5
14:20 999 29.5 828 24.45 6.4 43.5 39 -6.5 20.2
14:25 999 29.5 828 24.45 6.3 43.4 41 -5.8 21.5
14:30 999 29.5 828 24.45 6.3 43.3 39 -6.6 20
14:35 998 29.47 828 24.45 6.2 43.2 38 -6.9 19.5
14:40 999 29.5 828 24.45 6.2 43.1 37 -7.4 18.6
14:45 999 29.5 828 24.45 6.2 43.1 39 -6.6 20
14:50 999 29.5 828 24.45 6.2 43.2 39 -6.8 19.7
14:55 998 29.47 828 24.45 6.5 43.6 37 -7.2 19
15:00 998 29.47 828 24.45 6.6 43.8 36 -7.5 18.4
15:05 998 29.47 828 24.45 6.5 43.8 36 -7.6 18.3
15:10 998 29.47 828 24.45 6.6 43.8 36 -7.3 18.8
15:15 998 29.47 828 24.45 6.5 43.7 37 -7.1 19.1
15:20 998 29.47 828 24.45 6.3 43.3 38 -7 19.3
15:25 998 29.47 828 24.45 6.2 43.2 38 -7 19.3
15:30 998 29.47 828 24.45 6.2 43.2 37 -7.3 18.9
15:35 999 29.5 828 24.45 6.1 43 48 -4.2 24.5
15:40 999 29.5 828 24.45 4.3 39.8 54 -4.2 24.4
15:45 999 29.5 828 24.45 3.6 38.4 54 -4.9 23.1
15:50 999 29.5 828 24.45 3.3 38 54 -5.2 22.7
15:55 999 29.5 828 24.45 3.3 37.9 53 -5.5 22.2
16:00 999 29.5 829 24.48 3.3 37.9 50 -6.1 21
16:05 999 29.5 829 24.48 3.2 37.7 51 -6.1 21
16:10 1000 29.53 829 24.48 3 37.4 55 -5.3 22.5
16:15 1000 29.53 829 24.48 2.5 36.6 55 -5.5 22.1
16:20 1000 29.53 829 24.48 2.1 35.8 57 -5.5 22.2
16:25 1000 29.53 830 24.51 1.9 35.4 63 -4.4 24
16:30 1000 29.53 830 24.51 1.3 34.3 67 -4.1 24.6
16:35 1000 29.53 830 24.51 1.1 34 65 -4.8 23.4
16:40 1000 29.53 830 24.51 1.1 34 66 -4.5 23.8
16:45 1000 29.53 830 24.51 0.9 33.6 69 -4.3 24.3
16:50 1000 29.53 829 24.48 0.6 33.1 69 -4.4 24.1
16:55 1000 29.53 829 24.48 0.6 33.1 69 -4.4 24
17:00 1000 29.53 829 24.48 0.7 33.3 70 -4.2 24.4
17:05 1000 29.53 829 24.48 0.8 33.4 67 -4.7 23.5
17:10 999 29.5 829 24.48 0.8 33.5 65 -5 23
17:15 999 29.5 828 24.45 0.9 33.6 63 -5.4 22.3
17:20 999 29.5 828 24.45 1 33.8 61 -5.7 21.8
17:25 999 29.5 828 24.45 1.2 34.1 60 -5.8 21.5
17:30 999 29.5 828 24.45 1.3 34.3 60 -5.6 21.8
17:35 999 29.5 828 24.45 1.3 34.3 59 -5.8 21.5
17:40 999 29.5 828 24.45 1.3 34.3 59 -5.9 21.4
17:45 999 29.5 828 24.45 1.2 34.2 61 -5.5 22
17:50 998 29.47 828 24.45 1.1 34 62 -5.4 22.2
17:55 998 29.47 827 24.42 0.9 33.6 65 -4.9 23.2
18:00 998 29.47 827 24.42 0.8 33.4 63 -5.5 22.1
18:05 998 29.47 827 24.42 0.8 33.5 62 -5.7 21.7
18:10 998 29.47 827 24.42 1.1 34 55 -6.9 19.6
18:15 998 29.47 827 24.42 1.4 34.6 52 -7.3 18.8
18:20 998 29.47 827 24.42 1.7 35 50 -7.7 18.2
18:25 998 29.47 827 24.42 2 35.5 49 -7.6 18.3
18:30 998 29.47 827 24.42 1.5 34.8 57 -6.2 20.9
18:35 998 29.47 828 24.45 1.2 34.1 58 -6.2 20.9
18:40 998 29.47 828 24.45 1 33.8 59 -6.1 21.1
18:45 999 29.5 828 24.45 1 33.7 59 -6.1 21.1
18:50 999 29.5 828 24.45 1 33.8 59 -6.2 20.8
18:55 999 29.5 828 24.45 1 33.7 57 -6.6 20.2
19:00 999 29.5 828 24.45 1.2 34.2 56 -6.7 20
19:05 999 29.5 828 24.45 1.2 34.2 55 -6.8 19.8
19:10 999 29.5 828 24.45 1.3 34.3 55 -6.8 19.7
19:15 999 29.5 828 24.45 1.3 34.4 56 -6.5 20.3
19:20 999 29.5 828 24.45 1.3 34.3 56 -6.5 20.3
19:25 999 29.5 828 24.45 1.3 34.3 54 -6.9 19.6
19:30 999 29.5 828 24.45 1.4 34.5 56 -6.4 20.4
19:35 999 29.5 828 24.45 1.4 34.4 57 -6.3 20.7
19:40 999 29.5 828 24.45 1.3 34.3 58 -6.1 21
19:45 999 29.5 828 24.45 1.2 34.2 59 -6 21.2
19:50 999 29.5 828 24.45 1 33.8 59 -6.1 21
19:55 999 29.5 828 24.45 1 33.7 58 -6.3 20.7
20:00 999 29.5 828 24.45 0.9 33.6 60 -6.1 21
20:05 999 29.5 828 24.45 0.7 33.3 59 -6.4 20.5
20:10 999 29.5 828 24.45 0.7 33.3 59 -6.3 20.7
20:15 999 29.5 828 24.45 0.7 33.3 60 -6.3 20.7
20:20 999 29.5 828 24.45 0.6 33 60 -6.2 20.8
20:25 999 29.5 828 24.45 0.3 32.5 62 -6.2 20.9
20:30 999 29.5 828 24.45 0.1 32.3 62 -6.3 20.7
20:35 999 29.5 828 24.45 0.1 32.2 63 -6.2 20.9
20:40 999 29.5 828 24.45 0.2 32.4 63 -5.9 21.3
20:45 999 29.5 828 24.45 0.3 32.5 64 -5.8 21.6
20:50 999 29.5 828 24.45 0.3 32.5 63 -5.9 21.3
20:55 999 29.5 828 24.45 0.3 32.5 63 -5.9 21.3
21:00 999 29.5 828 24.45 0.3 32.6 63 -5.8 21.5
21:05 999 29.5 828 24.45 0.3 32.6 65 -5.6 22
21:10 999 29.5 828 24.45 0.2 32.4 64 -5.8 21.5
21:15 999 29.5 828 24.45 0.2 32.4 63 -6.1 21.1
21:20 999 29.5 828 24.45 0.3 32.6 62 -6.2 20.8
21:25 999 29.5 828 24.45 0.4 32.8 59 -6.6 20.1
21:30 999 29.5 829 24.48 0.5 32.9 60 -6.3 20.6
21:35 999 29.5 829 24.48 0.2 32.3 63 -6.1 21.1
21:40 999 29.5 829 24.48 -0.1 31.8 63 -6.3 20.7
21:45 999 29.5 828 24.45 -0.1 31.7 65 -5.9 21.4
21:50 999 29.5 828 24.45 -0.2 31.6 68 -5.5 22.2
21:55 999 29.5 829 24.48 -0.4 31.4 70 -5.2 22.6
22:00 999 29.5 829 24.48 -0.4 31.2 69 -5.3 22.4
22:05 999 29.5 829 24.48 -0.5 31.2 68 -5.6 22
22:10 1000 29.53 829 24.48 -0.6 30.9 68 -5.9 21.4
22:15 1000 29.53 829 24.48 -0.8 30.5 72 -5.3 22.4
22:20 1000 29.53 829 24.48 -1.3 29.7 79 -4.4 24.1
22:25 1000 29.53 829 24.48 -1.8 28.8 84 -4.2 24.4
22:30 1000 29.53 829 24.48 -2 28.5 85 -4.1 24.6
22:35 1000 29.53 829 24.48 -2 28.3 86 -4 24.8
22:40 1000 29.53 829 24.48 -2.1 28.2 87 -4 24.9
22:45 1000 29.53 829 24.48 -2.2 28 89 -3.8 25.1
22:50 1000 29.53 830 24.51 -2.3 27.9 89 -3.8 25.1
22:55 1000 29.53 830 24.51 -2.3 27.9 89 -3.9 25
23:00 1000 29.53 829 24.48 -2.3 27.8 89 -4 24.9
23:05 1000 29.53 830 24.51 -2.4 27.7 89 -4 24.9
23:10 1000 29.53 830 24.51 -2.4 27.7 89 -4 24.8
23:15 1001 29.56 830 24.51 -2.3 27.8 89 -4 24.9
23:20 1000 29.53 830 24.51 -2.4 27.8 89 -3.9 24.9
23:25 1000 29.53 830 24.51 -2.5 27.5 90 -4 24.9
23:30 1001 29.56 830 24.51 -2.6 27.3 90 -4 24.7
23:35 1001 29.56 830 24.51 -2.7 27.2 90 -4 24.7
23:40 1001 29.56 830 24.51 -2.7 27.1 90 -4.1 24.7
23:45 1001 29.56 830 24.51 -2.7 27.1 90 -4.1 24.6
23:50 1001 29.56 830 24.51 -2.8 27 90 -4.1 24.6
23:55 1001 29.56 830 24.51 -2.9 26.9 91 -4.2 24.4
24:00 1001 29.56 830 24.51 -2.9 26.7 91 -4.2 24.5